sensor_id;sensor_type;location;lat;lon;timestamp;P1;durP1;ratioP1;P2;durP2;ratioP2
43070;SDS011;36278;47.952;21.714;2023-09-19T00:00:45;10.43;;;7.20;;
43070;SDS011;36278;47.952;21.714;2023-09-19T00:03:14;9.75;;;7.00;;
43070;SDS011;36278;47.952;21.714;2023-09-19T00:05:40;11.30;;;7.55;;
43070;SDS011;36278;47.952;21.714;2023-09-19T00:08:09;8.27;;;6.70;;
43070;SDS011;36278;47.952;21.714;2023-09-19T00:10:34;7.75;;;6.53;;
43070;SDS011;36278;47.952;21.714;2023-09-19T00:13:03;7.95;;;6.35;;
43070;SDS011;36278;47.952;21.714;2023-09-19T00:15:42;8.43;;;7.10;;
43070;SDS011;36278;47.952;21.714;2023-09-19T00:18:13;8.75;;;6.63;;
43070;SDS011;36278;47.952;21.714;2023-09-19T00:20:40;7.03;;;5.90;;
43070;SDS011;36278;47.952;21.714;2023-09-19T00:23:07;9.55;;;6.90;;
43070;SDS011;36278;47.952;21.714;2023-09-19T00:25:38;10.13;;;6.45;;
43070;SDS011;36278;47.952;21.714;2023-09-19T00:28:06;10.07;;;6.85;;
43070;SDS011;36278;47.952;21.714;2023-09-19T00:30:33;8.63;;;6.43;;
43070;SDS011;36278;47.952;21.714;2023-09-19T00:32:59;9.15;;;6.18;;
43070;SDS011;36278;47.952;21.714;2023-09-19T00:35:26;9.02;;;6.40;;
43070;SDS011;36278;47.952;21.714;2023-09-19T00:37:52;7.07;;;5.97;;
43070;SDS011;36278;47.952;21.714;2023-09-19T00:40:18;9.70;;;6.45;;
43070;SDS011;36278;47.952;21.714;2023-09-19T00:42:46;10.30;;;6.40;;
43070;SDS011;36278;47.952;21.714;2023-09-19T00:45:13;7.18;;;5.85;;
43070;SDS011;36278;47.952;21.714;2023-09-19T00:47:43;6.97;;;6.25;;
43070;SDS011;36278;47.952;21.714;2023-09-19T00:50:15;9.18;;;6.15;;
43070;SDS011;36278;47.952;21.714;2023-09-19T00:52:43;9.23;;;5.75;;
43070;SDS011;36278;47.952;21.714;2023-09-19T00:55:09;7.13;;;6.05;;
43070;SDS011;36278;47.952;21.714;2023-09-19T00:57:39;9.02;;;5.82;;
43070;SDS011;36278;47.952;21.714;2023-09-19T01:00:06;8.18;;;5.57;;
43070;SDS011;36278;47.952;21.714;2023-09-19T01:02:35;7.13;;;5.82;;
43070;SDS011;36278;47.952;21.714;2023-09-19T01:05:00;7.32;;;5.95;;
43070;SDS011;36278;47.952;21.714;2023-09-19T01:07:27;9.35;;;5.72;;
43070;SDS011;36278;47.952;21.714;2023-09-19T01:09:56;8.95;;;5.88;;
43070;SDS011;36278;47.952;21.714;2023-09-19T01:21:09;9.25;;;6.03;;
43070;SDS011;36278;47.952;21.714;2023-09-19T01:32:01;9.88;;;6.93;;
43070;SDS011;36278;47.952;21.714;2023-09-19T01:34:45;6.65;;;5.97;;
43070;SDS011;36278;47.952;21.714;2023-09-19T01:37:19;11.35;;;6.43;;
43070;SDS011;36278;47.952;21.714;2023-09-19T01:39:56;7.32;;;6.20;;
43070;SDS011;36278;47.952;21.714;2023-09-19T01:48:19;9.45;;;6.85;;
43070;SDS011;36278;47.952;21.714;2023-09-19T01:53:41;9.13;;;6.68;;
43070;SDS011;36278;47.952;21.714;2023-09-19T01:56:16;11.13;;;6.43;;
43070;SDS011;36278;47.952;21.714;2023-09-19T01:58:48;7.88;;;6.63;;
43070;SDS011;36278;47.952;21.714;2023-09-19T02:01:17;8.68;;;6.50;;
43070;SDS011;36278;47.952;21.714;2023-09-19T02:03:46;6.72;;;6.00;;
43070;SDS011;36278;47.952;21.714;2023-09-19T02:06:15;7.80;;;6.38;;
43070;SDS011;36278;47.952;21.714;2023-09-19T02:08:42;9.55;;;5.97;;
43070;SDS011;36278;47.952;21.714;2023-09-19T02:11:08;8.65;;;6.53;;
43070;SDS011;36278;47.952;21.714;2023-09-19T02:13:33;14.82;;;6.38;;
43070;SDS011;36278;47.952;21.714;2023-09-19T02:15:59;8.80;;;6.40;;
43070;SDS011;36278;47.952;21.714;2023-09-19T02:18:25;10.02;;;8.27;;
43070;SDS011;36278;47.952;21.714;2023-09-19T02:20:52;16.10;;;8.80;;
43070;SDS011;36278;47.952;21.714;2023-09-19T02:23:19;19.85;;;9.30;;
43070;SDS011;36278;47.952;21.714;2023-09-19T02:25:51;19.35;;;10.00;;
43070;SDS011;36278;47.952;21.714;2023-09-19T02:28:20;19.25;;;11.50;;
43070;SDS011;36278;47.952;21.714;2023-09-19T02:30:48;15.75;;;9.93;;
43070;SDS011;36278;47.952;21.714;2023-09-19T02:33:16;14.25;;;8.65;;
43070;SDS011;36278;47.952;21.714;2023-09-19T02:35:42;13.40;;;8.48;;
43070;SDS011;36278;47.952;21.714;2023-09-19T02:38:08;12.52;;;8.88;;
43070;SDS011;36278;47.952;21.714;2023-09-19T02:40:36;11.35;;;8.52;;
43070;SDS011;36278;47.952;21.714;2023-09-19T02:43:02;10.60;;;8.70;;
43070;SDS011;36278;47.952;21.714;2023-09-19T02:45:28;11.15;;;8.90;;
43070;SDS011;36278;47.952;21.714;2023-09-19T02:47:54;9.88;;;8.70;;
43070;SDS011;36278;47.952;21.714;2023-09-19T02:50:20;12.23;;;8.77;;
43070;SDS011;36278;47.952;21.714;2023-09-19T02:52:46;10.70;;;8.73;;
43070;SDS011;36278;47.952;21.714;2023-09-19T02:55:14;12.00;;;8.75;;
43070;SDS011;36278;47.952;21.714;2023-09-19T02:57:46;10.48;;;9.38;;
43070;SDS011;36278;47.952;21.714;2023-09-19T03:00:16;11.13;;;9.25;;
43070;SDS011;36278;47.952;21.714;2023-09-19T03:02:46;11.57;;;9.63;;
43070;SDS011;36278;47.952;21.714;2023-09-19T03:05:12;14.05;;;10.38;;
43070;SDS011;36278;47.952;21.714;2023-09-19T03:07:37;11.10;;;9.48;;
43070;SDS011;36278;47.952;21.714;2023-09-19T03:10:03;11.93;;;9.63;;
43070;SDS011;36278;47.952;21.714;2023-09-19T03:12:31;10.02;;;8.77;;
43070;SDS011;36278;47.952;21.714;2023-09-19T03:14:57;13.30;;;8.82;;
43070;SDS011;36278;47.952;21.714;2023-09-19T03:17:22;11.48;;;9.93;;
43070;SDS011;36278;47.952;21.714;2023-09-19T03:19:48;11.60;;;10.38;;
43070;SDS011;36278;47.952;21.714;2023-09-19T03:22:14;14.57;;;10.18;;
43070;SDS011;36278;47.952;21.714;2023-09-19T03:24:40;11.10;;;9.55;;
43070;SDS011;36278;47.952;21.714;2023-09-19T03:27:08;14.60;;;10.20;;
43070;SDS011;36278;47.952;21.714;2023-09-19T03:29:34;13.35;;;10.43;;
43070;SDS011;36278;47.952;21.714;2023-09-19T03:32:00;12.10;;;9.98;;
43070;SDS011;36278;47.952;21.714;2023-09-19T03:34:26;12.13;;;10.82;;
43070;SDS011;36278;47.952;21.714;2023-09-19T03:36:52;11.95;;;9.65;;
43070;SDS011;36278;47.952;21.714;2023-09-19T03:39:17;10.68;;;9.45;;
43070;SDS011;36278;47.952;21.714;2023-09-19T03:41:43;13.13;;;10.05;;
43070;SDS011;36278;47.952;21.714;2023-09-19T03:44:08;12.27;;;10.05;;
43070;SDS011;36278;47.952;21.714;2023-09-19T03:46:34;13.63;;;10.63;;
43070;SDS011;36278;47.952;21.714;2023-09-19T03:49:00;10.98;;;9.68;;
43070;SDS011;36278;47.952;21.714;2023-09-19T03:51:26;10.80;;;9.70;;
43070;SDS011;36278;47.952;21.714;2023-09-19T03:53:51;11.07;;;9.98;;
43070;SDS011;36278;47.952;21.714;2023-09-19T03:56:16;12.05;;;9.48;;
43070;SDS011;36278;47.952;21.714;2023-09-19T03:58:42;12.50;;;9.80;;
43070;SDS011;36278;47.952;21.714;2023-09-19T04:01:08;11.20;;;10.10;;
43070;SDS011;36278;47.952;21.714;2023-09-19T04:03:33;13.60;;;11.50;;
43070;SDS011;36278;47.952;21.714;2023-09-19T04:06:10;12.93;;;10.93;;
43070;SDS011;36278;47.952;21.714;2023-09-19T04:08:37;11.17;;;10.07;;
43070;SDS011;36278;47.952;21.714;2023-09-19T04:11:02;13.50;;;10.87;;
43070;SDS011;36278;47.952;21.714;2023-09-19T04:13:28;13.07;;;10.77;;
43070;SDS011;36278;47.952;21.714;2023-09-19T04:15:53;14.95;;;10.85;;
43070;SDS011;36278;47.952;21.714;2023-09-19T04:18:19;13.20;;;10.50;;
43070;SDS011;36278;47.952;21.714;2023-09-19T04:20:48;12.95;;;11.05;;
43070;SDS011;36278;47.952;21.714;2023-09-19T04:23:14;12.50;;;10.70;;
43070;SDS011;36278;47.952;21.714;2023-09-19T04:25:40;12.82;;;11.43;;
43070;SDS011;36278;47.952;21.714;2023-09-19T04:28:06;13.53;;;10.73;;
43070;SDS011;36278;47.952;21.714;2023-09-19T04:30:32;16.23;;;11.70;;
43070;SDS011;36278;47.952;21.714;2023-09-19T04:32:57;12.98;;;10.50;;
43070;SDS011;36278;47.952;21.714;2023-09-19T04:35:22;12.27;;;11.07;;
43070;SDS011;36278;47.952;21.714;2023-09-19T04:37:48;14.67;;;11.00;;
43070;SDS011;36278;47.952;21.714;2023-09-19T04:40:15;12.97;;;11.53;;
43070;SDS011;36278;47.952;21.714;2023-09-19T04:42:45;13.87;;;10.80;;
43070;SDS011;36278;47.952;21.714;2023-09-19T04:45:21;12.13;;;10.83;;
43070;SDS011;36278;47.952;21.714;2023-09-19T04:47:46;11.77;;;10.30;;
43070;SDS011;36278;47.952;21.714;2023-09-19T04:50:11;16.17;;;10.70;;
43070;SDS011;36278;47.952;21.714;2023-09-19T04:52:42;12.10;;;10.80;;
43070;SDS011;36278;47.952;21.714;2023-09-19T04:55:13;13.70;;;10.70;;
43070;SDS011;36278;47.952;21.714;2023-09-19T04:57:45;12.70;;;10.48;;
43070;SDS011;36278;47.952;21.714;2023-09-19T05:00:15;11.48;;;10.20;;
43070;SDS011;36278;47.952;21.714;2023-09-19T05:02:44;12.18;;;10.82;;
43070;SDS011;36278;47.952;21.714;2023-09-19T05:05:10;10.70;;;9.65;;
43070;SDS011;36278;47.952;21.714;2023-09-19T05:07:37;13.07;;;10.93;;
43070;SDS011;36278;47.952;21.714;2023-09-19T05:10:04;19.53;;;11.13;;
43070;SDS011;36278;47.952;21.714;2023-09-19T05:12:36;12.02;;;10.07;;
43070;SDS011;36278;47.952;21.714;2023-09-19T05:15:05;11.90;;;10.65;;
43070;SDS011;36278;47.952;21.714;2023-09-19T05:17:32;11.50;;;9.43;;
43070;SDS011;36278;47.952;21.714;2023-09-19T05:19:59;10.90;;;9.80;;
43070;SDS011;36278;47.952;21.714;2023-09-19T05:22:28;11.20;;;10.03;;
43070;SDS011;36278;47.952;21.714;2023-09-19T05:24:54;11.65;;;10.00;;
43070;SDS011;36278;47.952;21.714;2023-09-19T05:27:19;12.05;;;9.70;;
43070;SDS011;36278;47.952;21.714;2023-09-19T05:29:46;11.68;;;10.32;;
43070;SDS011;36278;47.952;21.714;2023-09-19T05:32:12;15.02;;;10.30;;
43070;SDS011;36278;47.952;21.714;2023-09-19T05:34:38;11.82;;;9.45;;
43070;SDS011;36278;47.952;21.714;2023-09-19T05:37:04;13.00;;;10.43;;
43070;SDS011;36278;47.952;21.714;2023-09-19T05:39:33;10.40;;;9.30;;
43070;SDS011;36278;47.952;21.714;2023-09-19T05:41:59;10.90;;;9.32;;
43070;SDS011;36278;47.952;21.714;2023-09-19T05:44:28;13.38;;;9.10;;
43070;SDS011;36278;47.952;21.714;2023-09-19T05:46:54;11.13;;;9.80;;
43070;SDS011;36278;47.952;21.714;2023-09-19T05:49:21;13.10;;;10.25;;
43070;SDS011;36278;47.952;21.714;2023-09-19T05:51:47;11.52;;;9.15;;
43070;SDS011;36278;47.952;21.714;2023-09-19T05:54:13;12.55;;;9.57;;
43070;SDS011;36278;47.952;21.714;2023-09-19T05:56:38;10.68;;;8.98;;
43070;SDS011;36278;47.952;21.714;2023-09-19T05:59:03;10.73;;;8.93;;
43070;SDS011;36278;47.952;21.714;2023-09-19T06:01:30;11.50;;;9.50;;
43070;SDS011;36278;47.952;21.714;2023-09-19T06:03:58;12.20;;;9.18;;
43070;SDS011;36278;47.952;21.714;2023-09-19T06:06:25;16.73;;;9.40;;
43070;SDS011;36278;47.952;21.714;2023-09-19T06:08:51;12.03;;;8.83;;
43070;SDS011;36278;47.952;21.714;2023-09-19T06:11:16;11.63;;;9.32;;
43070;SDS011;36278;47.952;21.714;2023-09-19T06:13:45;11.07;;;8.57;;
43070;SDS011;36278;47.952;21.714;2023-09-19T06:16:12;11.13;;;8.77;;
43070;SDS011;36278;47.952;21.714;2023-09-19T06:18:38;11.55;;;9.38;;
43070;SDS011;36278;47.952;21.714;2023-09-19T06:21:04;13.70;;;8.90;;
43070;SDS011;36278;47.952;21.714;2023-09-19T06:23:33;10.73;;;8.93;;
43070;SDS011;36278;47.952;21.714;2023-09-19T06:26:00;11.90;;;8.48;;
43070;SDS011;36278;47.952;21.714;2023-09-19T06:28:25;11.00;;;8.45;;
43070;SDS011;36278;47.952;21.714;2023-09-19T06:30:54;12.75;;;9.05;;
43070;SDS011;36278;47.952;21.714;2023-09-19T06:33:20;12.00;;;8.80;;
43070;SDS011;36278;47.952;21.714;2023-09-19T06:35:46;10.98;;;8.38;;
43070;SDS011;36278;47.952;21.714;2023-09-19T06:38:13;10.73;;;9.38;;
43070;SDS011;36278;47.952;21.714;2023-09-19T06:40:40;9.98;;;8.43;;
43070;SDS011;36278;47.952;21.714;2023-09-19T06:43:09;9.65;;;7.78;;
43070;SDS011;36278;47.952;21.714;2023-09-19T06:45:35;12.15;;;8.07;;
43070;SDS011;36278;47.952;21.714;2023-09-19T06:48:01;11.40;;;8.50;;
43070;SDS011;36278;47.952;21.714;2023-09-19T06:50:28;8.90;;;7.78;;
43070;SDS011;36278;47.952;21.714;2023-09-19T06:52:56;12.13;;;8.50;;
43070;SDS011;36278;47.952;21.714;2023-09-19T06:55:24;10.90;;;8.32;;
43070;SDS011;36278;47.952;21.714;2023-09-19T06:57:53;10.88;;;8.48;;
43070;SDS011;36278;47.952;21.714;2023-09-19T07:00:19;10.73;;;8.57;;
43070;SDS011;36278;47.952;21.714;2023-09-19T07:05:22;12.65;;;7.78;;
43070;SDS011;36278;47.952;21.714;2023-09-19T07:07:48;14.30;;;8.90;;
43070;SDS011;36278;47.952;21.714;2023-09-19T07:10:14;10.57;;;7.93;;
43070;SDS011;36278;47.952;21.714;2023-09-19T07:12:39;9.23;;;7.63;;
43070;SDS011;36278;47.952;21.714;2023-09-19T07:15:06;9.13;;;7.88;;
43070;SDS011;36278;47.952;21.714;2023-09-19T07:17:31;9.93;;;8.15;;
43070;SDS011;36278;47.952;21.714;2023-09-19T07:19:58;9.30;;;7.20;;
43070;SDS011;36278;47.952;21.714;2023-09-19T07:22:24;10.48;;;7.05;;
43070;SDS011;36278;47.952;21.714;2023-09-19T07:24:51;9.75;;;7.50;;
43070;SDS011;36278;47.952;21.714;2023-09-19T07:27:17;7.55;;;6.80;;
43070;SDS011;36278;47.952;21.714;2023-09-19T07:29:42;8.48;;;6.28;;
43070;SDS011;36278;47.952;21.714;2023-09-19T07:32:08;7.32;;;5.82;;
43070;SDS011;36278;47.952;21.714;2023-09-19T07:34:35;7.22;;;5.72;;
43070;SDS011;36278;47.952;21.714;2023-09-19T07:37:00;9.30;;;6.05;;
43070;SDS011;36278;47.952;21.714;2023-09-19T07:39:26;6.82;;;5.40;;
43070;SDS011;36278;47.952;21.714;2023-09-19T07:41:51;8.63;;;5.47;;
43070;SDS011;36278;47.952;21.714;2023-09-19T07:44:17;7.40;;;5.78;;
43070;SDS011;36278;47.952;21.714;2023-09-19T07:46:44;12.52;;;5.13;;
43070;SDS011;36278;47.952;21.714;2023-09-19T07:49:10;7.68;;;5.15;;
43070;SDS011;36278;47.952;21.714;2023-09-19T07:51:35;7.38;;;5.60;;
43070;SDS011;36278;47.952;21.714;2023-09-19T07:54:01;10.70;;;5.25;;
43070;SDS011;36278;47.952;21.714;2023-09-19T07:56:26;7.65;;;4.75;;
43070;SDS011;36278;47.952;21.714;2023-09-19T07:58:53;8.77;;;5.07;;
43070;SDS011;36278;47.952;21.714;2023-09-19T08:01:18;8.23;;;4.97;;
43070;SDS011;36278;47.952;21.714;2023-09-19T08:03:43;6.95;;;5.05;;
43070;SDS011;36278;47.952;21.714;2023-09-19T08:06:10;9.88;;;5.72;;
43070;SDS011;36278;47.952;21.714;2023-09-19T08:08:36;8.20;;;5.00;;
43070;SDS011;36278;47.952;21.714;2023-09-19T08:11:03;7.57;;;5.18;;
43070;SDS011;36278;47.952;21.714;2023-09-19T08:13:37;11.85;;;4.72;;
43070;SDS011;36278;47.952;21.714;2023-09-19T08:16:08;11.23;;;5.17;;
43070;SDS011;36278;47.952;21.714;2023-09-19T08:18:35;10.02;;;5.57;;
43070;SDS011;36278;47.952;21.714;2023-09-19T08:21:03;9.20;;;4.95;;
43070;SDS011;36278;47.952;21.714;2023-09-19T08:23:28;6.85;;;5.10;;
43070;SDS011;36278;47.952;21.714;2023-09-19T08:25:58;10.00;;;6.35;;
43070;SDS011;36278;47.952;21.714;2023-09-19T08:28:28;10.07;;;5.70;;
43070;SDS011;36278;47.952;21.714;2023-09-19T08:30:55;11.68;;;5.90;;
43070;SDS011;36278;47.952;21.714;2023-09-19T08:33:23;7.80;;;5.10;;
43070;SDS011;36278;47.952;21.714;2023-09-19T08:35:49;11.45;;;5.22;;
43070;SDS011;36278;47.952;21.714;2023-09-19T08:38:14;10.27;;;5.32;;
43070;SDS011;36278;47.952;21.714;2023-09-19T08:40:42;14.13;;;6.18;;
43070;SDS011;36278;47.952;21.714;2023-09-19T08:43:09;10.13;;;5.78;;
43070;SDS011;36278;47.952;21.714;2023-09-19T08:45:35;9.35;;;5.55;;
43070;SDS011;36278;47.952;21.714;2023-09-19T08:50:42;9.43;;;5.68;;
43070;SDS011;36278;47.952;21.714;2023-09-19T08:53:15;10.77;;;5.40;;
43070;SDS011;36278;47.952;21.714;2023-09-19T08:55:52;8.00;;;5.30;;
43070;SDS011;36278;47.952;21.714;2023-09-19T08:58:21;9.20;;;5.57;;
43070;SDS011;36278;47.952;21.714;2023-09-19T09:00:53;8.75;;;5.28;;
43070;SDS011;36278;47.952;21.714;2023-09-19T09:03:20;7.68;;;5.28;;
43070;SDS011;36278;47.952;21.714;2023-09-19T09:05:48;11.65;;;5.35;;
43070;SDS011;36278;47.952;21.714;2023-09-19T09:08:16;16.25;;;6.22;;
43070;SDS011;36278;47.952;21.714;2023-09-19T09:10:45;13.73;;;6.18;;
43070;SDS011;36278;47.952;21.714;2023-09-19T09:13:11;15.18;;;5.65;;
43070;SDS011;36278;47.952;21.714;2023-09-19T09:15:39;11.95;;;6.20;;
43070;SDS011;36278;47.952;21.714;2023-09-19T09:18:06;12.55;;;5.93;;
43070;SDS011;36278;47.952;21.714;2023-09-19T09:20:32;16.42;;;6.70;;
43070;SDS011;36278;47.952;21.714;2023-09-19T09:22:58;14.32;;;6.05;;
43070;SDS011;36278;47.952;21.714;2023-09-19T09:25:46;9.02;;;5.97;;
43070;SDS011;36278;47.952;21.714;2023-09-19T09:28:20;14.55;;;6.20;;
43070;SDS011;36278;47.952;21.714;2023-09-19T09:30:46;11.18;;;5.50;;
43070;SDS011;36278;47.952;21.714;2023-09-19T09:33:12;11.82;;;6.82;;
43070;SDS011;36278;47.952;21.714;2023-09-19T09:35:52;19.63;;;6.07;;
43070;SDS011;36278;47.952;21.714;2023-09-19T09:38:23;12.90;;;6.15;;
43070;SDS011;36278;47.952;21.714;2023-09-19T09:40:53;10.32;;;6.18;;
43070;SDS011;36278;47.952;21.714;2023-09-19T09:43:40;17.60;;;5.97;;
43070;SDS011;36278;47.952;21.714;2023-09-19T09:51:38;12.68;;;6.43;;
43070;SDS011;36278;47.952;21.714;2023-09-19T09:56:52;14.23;;;6.70;;
43070;SDS011;36278;47.952;21.714;2023-09-19T09:59:45;14.00;;;6.00;;
43070;SDS011;36278;47.952;21.714;2023-09-19T10:02:28;10.40;;;6.55;;
43070;SDS011;36278;47.952;21.714;2023-09-19T10:04:55;15.52;;;6.90;;
43070;SDS011;36278;47.952;21.714;2023-09-19T10:07:24;17.20;;;6.85;;
43070;SDS011;36278;47.952;21.714;2023-09-19T10:09:53;12.48;;;6.88;;
43070;SDS011;36278;47.952;21.714;2023-09-19T10:12:24;12.75;;;6.90;;
43070;SDS011;36278;47.952;21.714;2023-09-19T10:14:54;16.20;;;7.03;;
43070;SDS011;36278;47.952;21.714;2023-09-19T10:17:24;15.20;;;6.82;;
43070;SDS011;36278;47.952;21.714;2023-09-19T10:19:54;13.23;;;7.70;;
43070;SDS011;36278;47.952;21.714;2023-09-19T10:22:26;13.68;;;7.03;;
43070;SDS011;36278;47.952;21.714;2023-09-19T10:24:53;14.48;;;7.38;;
43070;SDS011;36278;47.952;21.714;2023-09-19T10:27:19;16.52;;;7.28;;
43070;SDS011;36278;47.952;21.714;2023-09-19T10:29:49;12.63;;;6.10;;
43070;SDS011;36278;47.952;21.714;2023-09-19T10:32:19;19.38;;;7.55;;
43070;SDS011;36278;47.952;21.714;2023-09-19T10:34:49;11.52;;;6.90;;
43070;SDS011;36278;47.952;21.714;2023-09-19T10:37:15;10.68;;;6.80;;
43070;SDS011;36278;47.952;21.714;2023-09-19T10:39:48;17.23;;;7.45;;
43070;SDS011;36278;47.952;21.714;2023-09-19T10:42:18;14.10;;;6.82;;
43070;SDS011;36278;47.952;21.714;2023-09-19T10:44:46;10.48;;;7.00;;
43070;SDS011;36278;47.952;21.714;2023-09-19T10:47:19;13.02;;;7.00;;
43070;SDS011;36278;47.952;21.714;2023-09-19T10:49:46;20.48;;;7.22;;
43070;SDS011;36278;47.952;21.714;2023-09-19T10:52:15;17.15;;;7.10;;
43070;SDS011;36278;47.952;21.714;2023-09-19T10:54:46;10.25;;;6.68;;
43070;SDS011;36278;47.952;21.714;2023-09-19T10:57:22;11.85;;;7.57;;
43070;SDS011;36278;47.952;21.714;2023-09-19T11:00:04;13.90;;;7.30;;
43070;SDS011;36278;47.952;21.714;2023-09-19T11:06:03;13.00;;;7.47;;
43070;SDS011;36278;47.952;21.714;2023-09-19T11:08:30;13.27;;;6.80;;
43070;SDS011;36278;47.952;21.714;2023-09-19T11:28:37;15.40;;;8.00;;
43070;SDS011;36278;47.952;21.714;2023-09-19T11:30:50;17.85;;;6.85;;
43070;SDS011;36278;47.952;21.714;2023-09-19T11:33:26;19.60;;;8.07;;
43070;SDS011;36278;47.952;21.714;2023-09-19T11:43:50;11.95;;;7.60;;
43070;SDS011;36278;47.952;21.714;2023-09-19T11:46:31;13.10;;;8.23;;
43070;SDS011;36278;47.952;21.714;2023-09-19T11:49:08;17.98;;;8.32;;
43070;SDS011;36278;47.952;21.714;2023-09-19T11:51:44;18.58;;;8.35;;
43070;SDS011;36278;47.952;21.714;2023-09-19T11:54:11;12.90;;;7.65;;
43070;SDS011;36278;47.952;21.714;2023-09-19T11:56:44;15.93;;;7.13;;
43070;SDS011;36278;47.952;21.714;2023-09-19T11:59:11;10.98;;;7.03;;
43070;SDS011;36278;47.952;21.714;2023-09-19T12:01:37;13.80;;;6.70;;
43070;SDS011;36278;47.952;21.714;2023-09-19T12:04:08;13.75;;;6.30;;
43070;SDS011;36278;47.952;21.714;2023-09-19T12:06:37;14.45;;;5.93;;
43070;SDS011;36278;47.952;21.714;2023-09-19T12:09:07;15.32;;;8.00;;
43070;SDS011;36278;47.952;21.714;2023-09-19T12:11:42;13.82;;;7.63;;
43070;SDS011;36278;47.952;21.714;2023-09-19T12:14:09;7.85;;;5.40;;
43070;SDS011;36278;47.952;21.714;2023-09-19T12:16:35;12.13;;;5.45;;
43070;SDS011;36278;47.952;21.714;2023-09-19T12:19:20;9.93;;;5.40;;
43070;SDS011;36278;47.952;21.714;2023-09-19T12:21:59;7.82;;;5.00;;
43070;SDS011;36278;47.952;21.714;2023-09-19T12:24:34;11.32;;;5.55;;
43070;SDS011;36278;47.952;21.714;2023-09-19T12:27:06;8.88;;;4.95;;
43070;SDS011;36278;47.952;21.714;2023-09-19T12:29:41;10.50;;;5.55;;
43070;SDS011;36278;47.952;21.714;2023-09-19T12:32:10;8.90;;;5.32;;
43070;SDS011;36278;47.952;21.714;2023-09-19T12:34:36;7.70;;;4.95;;
43070;SDS011;36278;47.952;21.714;2023-09-19T12:39:51;6.88;;;4.80;;
43070;SDS011;36278;47.952;21.714;2023-09-19T12:42:22;9.38;;;4.57;;
43070;SDS011;36278;47.952;21.714;2023-09-19T12:44:49;9.90;;;4.97;;
43070;SDS011;36278;47.952;21.714;2023-09-19T12:47:20;10.82;;;4.95;;
43070;SDS011;36278;47.952;21.714;2023-09-19T12:50:09;10.45;;;4.78;;
43070;SDS011;36278;47.952;21.714;2023-09-19T12:52:44;7.57;;;5.03;;
43070;SDS011;36278;47.952;21.714;2023-09-19T13:00:33;7.28;;;4.85;;
43070;SDS011;36278;47.952;21.714;2023-09-19T13:05:51;9.77;;;4.07;;
43070;SDS011;36278;47.952;21.714;2023-09-19T13:08:25;6.13;;;3.10;;
43070;SDS011;36278;47.952;21.714;2023-09-19T13:11:10;6.53;;;2.42;;
43070;SDS011;36278;47.952;21.714;2023-09-19T13:14:23;5.25;;;2.00;;
43070;SDS011;36278;47.952;21.714;2023-09-19T13:19:38;4.40;;;1.63;;
43070;SDS011;36278;47.952;21.714;2023-09-19T13:22:50;3.05;;;1.58;;
43070;SDS011;36278;47.952;21.714;2023-09-19T13:25:05;4.07;;;1.50;;
43070;SDS011;36278;47.952;21.714;2023-09-19T13:27:32;3.85;;;1.63;;
43070;SDS011;36278;47.952;21.714;2023-09-19T13:29:58;3.08;;;2.10;;
43070;SDS011;36278;47.952;21.714;2023-09-19T13:32:24;5.43;;;2.70;;
43070;SDS011;36278;47.952;21.714;2023-09-19T13:34:51;5.43;;;3.45;;
43070;SDS011;36278;47.952;21.714;2023-09-19T13:37:16;6.30;;;3.95;;
43070;SDS011;36278;47.952;21.714;2023-09-19T13:39:44;8.98;;;4.70;;
43070;SDS011;36278;47.952;21.714;2023-09-19T13:42:15;5.75;;;5.03;;
43070;SDS011;36278;47.952;21.714;2023-09-19T13:44:42;11.20;;;6.88;;
43070;SDS011;36278;47.952;21.714;2023-09-19T13:47:08;17.30;;;9.80;;
43070;SDS011;36278;47.952;21.714;2023-09-19T13:49:39;13.23;;;11.20;;
43070;SDS011;36278;47.952;21.714;2023-09-19T13:52:11;14.20;;;11.77;;
43070;SDS011;36278;47.952;21.714;2023-09-19T13:54:42;13.68;;;12.15;;
43070;SDS011;36278;47.952;21.714;2023-09-19T13:57:11;19.08;;;12.23;;
43070;SDS011;36278;47.952;21.714;2023-09-19T13:59:38;14.38;;;13.05;;
43070;SDS011;36278;47.952;21.714;2023-09-19T14:02:04;13.93;;;12.45;;
43070;SDS011;36278;47.952;21.714;2023-09-19T14:04:31;15.65;;;13.10;;
43070;SDS011;36278;47.952;21.714;2023-09-19T14:06:57;13.38;;;11.90;;
43070;SDS011;36278;47.952;21.714;2023-09-19T14:09:23;13.98;;;12.52;;
43070;SDS011;36278;47.952;21.714;2023-09-19T14:11:50;15.88;;;11.50;;
43070;SDS011;36278;47.952;21.714;2023-09-19T14:14:18;13.93;;;12.57;;
43070;SDS011;36278;47.952;21.714;2023-09-19T14:16:46;14.02;;;12.50;;
43070;SDS011;36278;47.952;21.714;2023-09-19T14:19:12;12.25;;;11.00;;
43070;SDS011;36278;47.952;21.714;2023-09-19T14:21:42;12.57;;;11.13;;
43070;SDS011;36278;47.952;21.714;2023-09-19T14:24:08;13.80;;;10.75;;
43070;SDS011;36278;47.952;21.714;2023-09-19T14:26:38;11.55;;;10.35;;
43070;SDS011;36278;47.952;21.714;2023-09-19T14:29:04;11.82;;;10.63;;
43070;SDS011;36278;47.952;21.714;2023-09-19T14:31:32;10.93;;;9.02;;
43070;SDS011;36278;47.952;21.714;2023-09-19T14:33:59;10.05;;;9.13;;
43070;SDS011;36278;47.952;21.714;2023-09-19T14:36:25;11.18;;;8.57;;
43070;SDS011;36278;47.952;21.714;2023-09-19T14:38:54;9.07;;;7.72;;
43070;SDS011;36278;47.952;21.714;2023-09-19T14:41:20;9.55;;;7.82;;
43070;SDS011;36278;47.952;21.714;2023-09-19T14:43:48;10.10;;;5.95;;
43070;SDS011;36278;47.952;21.714;2023-09-19T14:46:14;9.05;;;6.97;;
43070;SDS011;36278;47.952;21.714;2023-09-19T14:48:41;7.18;;;6.47;;
43070;SDS011;36278;47.952;21.714;2023-09-19T14:51:09;6.40;;;5.35;;
43070;SDS011;36278;47.952;21.714;2023-09-19T14:53:35;5.65;;;4.47;;
43070;SDS011;36278;47.952;21.714;2023-09-19T14:56:03;8.23;;;4.93;;
43070;SDS011;36278;47.952;21.714;2023-09-19T14:58:30;7.10;;;5.03;;
43070;SDS011;36278;47.952;21.714;2023-09-19T15:01:05;5.07;;;4.57;;
43070;SDS011;36278;47.952;21.714;2023-09-19T15:03:33;6.25;;;5.60;;
43070;SDS011;36278;47.952;21.714;2023-09-19T15:06:06;5.82;;;4.90;;
43070;SDS011;36278;47.952;21.714;2023-09-19T15:08:34;6.10;;;5.03;;
43070;SDS011;36278;47.952;21.714;2023-09-19T15:11:06;6.45;;;5.13;;
43070;SDS011;36278;47.952;21.714;2023-09-19T15:13:36;5.13;;;4.53;;
43070;SDS011;36278;47.952;21.714;2023-09-19T15:16:06;5.00;;;4.50;;
43070;SDS011;36278;47.952;21.714;2023-09-19T15:18:36;5.88;;;4.50;;
43070;SDS011;36278;47.952;21.714;2023-09-19T15:21:12;6.30;;;4.43;;
43070;SDS011;36278;47.952;21.714;2023-09-19T15:23:40;8.23;;;4.70;;
43070;SDS011;36278;47.952;21.714;2023-09-19T15:26:07;5.30;;;4.80;;
43070;SDS011;36278;47.952;21.714;2023-09-19T15:28:33;6.93;;;4.85;;
43070;SDS011;36278;47.952;21.714;2023-09-19T15:31:00;6.80;;;4.57;;
43070;SDS011;36278;47.952;21.714;2023-09-19T15:33:29;8.70;;;4.70;;
43070;SDS011;36278;47.952;21.714;2023-09-19T15:41:34;4.68;;;3.80;;
43070;SDS011;36278;47.952;21.714;2023-09-19T15:44:11;4.82;;;3.53;;
43070;SDS011;36278;47.952;21.714;2023-09-19T15:46:38;6.88;;;4.80;;
43070;SDS011;36278;47.952;21.714;2023-09-19T15:49:04;3.67;;;3.30;;
43070;SDS011;36278;47.952;21.714;2023-09-19T15:51:29;5.53;;;3.60;;
43070;SDS011;36278;47.952;21.714;2023-09-19T15:53:55;5.35;;;3.67;;
43070;SDS011;36278;47.952;21.714;2023-09-19T15:56:22;4.75;;;3.88;;
43070;SDS011;36278;47.952;21.714;2023-09-19T15:58:52;5.97;;;4.13;;